Weather History for Woodward, OK

Change the Weather History Date:

Monday, February 4, 2013

  Actual Average (KGAG) Record (KGAG)
Temperature  
Mean Temperature 48 °F -  
Max Temperature 60 °F 48 °F 78 °F (1963)
Min Temperature 35 °F 22 °F -4 °F (1989)
Degree Days  
Heating Degree Days 18    
Moisture  
Dew Point 26 °F    
Average Humidity 44    
Maximum Humidity 70    
Minimum Humidity 22    
Precipitation  
Precipitation 0.00 in - - ()
Sea Level Pressure  
Sea Level Pressure 29.93 in    
Wind  
Wind Speed 9 mph (North)    
Max Wind Speed 15 mph    
Max Gust Speed 20 mph    
Visibility 10 miles    
Events      
Averages and records for this station are not official NWS values.
T = Trace of Precipitation, MM = Missing Value Source: NWS Daily Summary

Daily Weather History Graph

Daily Weather History Graph

Search for Another Location

Airport:

Trip Planner

Search our weather history database for the weather conditions in past years. The results will help you decide how hot, cold, wet, or windy it might be!

Date:

Astronomy

Feb. 04, 2013 Rise Set
Actual Time 7:36 AM CST 6:07 PM CST
Civil Twilight 7:09 AM CST 6:34 PM CST
Nautical Twilight 6:39 AM CST 7:05 PM CST
Astronomical Twilight 6:08 AM CST 7:35 PM CST
Moon 2:12 AM CST (2/4) 12:35 PM CST (2/4)
Length of Visible Light 11h 24m
Length of Day
10h 31m
Last Quarter, 37% of the Moon is Illuminated
Feb 4
Last Quarter
Feb 10
New
Feb 17
First Quarter
Feb 25
Full
Mar 4
Last Quarter

Hourly Weather History & Observations

Time (CST) Temp. Windchill Dew Point Humidity Pressure Visibility Wind Dir Wind Speed Gust Speed Precip Events Conditions
12:15 AM 55.4 °F - 30.2 °F 38% 29.84 in 10.0 mi South 12.7 mph 19.6 mph N/A   Clear
12:35 AM 55.4 °F - 30.2 °F 38% 29.83 in 10.0 mi SSW 15.0 mph - N/A   Clear
12:55 AM 53.6 °F - 30.2 °F 41% 29.83 in 10.0 mi SSW 12.7 mph - N/A   Clear
1:15 AM 53.6 °F - 32.0 °F 44% 29.83 in 10.0 mi SSW 12.7 mph - N/A   Clear
1:35 AM 53.6 °F - 32.0 °F 44% 29.83 in 10.0 mi SSW 10.4 mph - N/A   Clear
1:55 AM 51.8 °F - 32.0 °F 47% 29.83 in 10.0 mi SSW 9.2 mph - N/A   Clear
2:15 AM 51.8 °F - 32.0 °F 47% 29.81 in 10.0 mi SW 11.5 mph - N/A   Clear
2:35 AM 51.8 °F - 32.0 °F 47% 29.81 in 10.0 mi SW 8.1 mph - N/A   Clear
2:55 AM 50.0 °F - 32.0 °F 50% 29.82 in 10.0 mi WSW 8.1 mph - N/A   Clear
3:15 AM 46.4 °F 42.4 °F 32.0 °F 57% 29.81 in 10.0 mi SW 8.1 mph - N/A   Clear
4:55 AM 42.8 °F 39.3 °F 32.0 °F 66% 29.84 in 10.0 mi WNW 5.8 mph - N/A   Clear
5:15 AM 42.8 °F 41.1 °F 32.0 °F 66% 29.85 in 10.0 mi WNW 3.5 mph - N/A   Clear
5:35 AM 42.8 °F - 32.0 °F 66% 29.85 in 10.0 mi Calm Calm - N/A   Clear
5:55 AM 42.8 °F 41.1 °F 32.0 °F 66% 29.86 in 10.0 mi NNW 3.5 mph - N/A   Clear
6:15 AM 41.0 °F 37.1 °F 32.0 °F 70% 29.87 in 10.0 mi NNW 5.8 mph - N/A   Clear
6:35 AM 41.0 °F 34.7 °F 32.0 °F 70% 29.88 in 10.0 mi NNW 10.4 mph - N/A   Clear
6:55 AM 41.0 °F 35.8 °F 30.2 °F 65% 29.89 in 10.0 mi NNW 8.1 mph - N/A   Clear
7:15 AM 39.2 °F 32.5 °F 28.4 °F 65% 29.90 in 10.0 mi NNW 10.4 mph - N/A   Clear
7:35 AM 37.4 °F 30.3 °F 26.6 °F 65% 29.92 in 10.0 mi NNW 10.4 mph - N/A   Clear
7:55 AM 37.4 °F 29.8 °F 26.6 °F 65% 29.93 in 10.0 mi NNW 11.5 mph - N/A   Clear
8:15 AM 37.4 °F 29.8 °F 26.6 °F 65% 29.94 in 10.0 mi NNW 11.5 mph - N/A   Clear
8:35 AM 41.0 °F 33.9 °F 26.6 °F 57% 29.95 in 10.0 mi NNW 12.7 mph - N/A   Clear
8:55 AM 41.0 °F 35.2 °F 26.6 °F 57% 29.96 in 10.0 mi North 9.2 mph 16.1 mph N/A   Clear
9:15 AM 44.6 °F 38.8 °F 26.6 °F 49% 29.97 in 10.0 mi North 11.5 mph 16.1 mph N/A   Clear
9:55 AM 46.4 °F 40.1 °F 26.6 °F 46% 29.97 in 10.0 mi North 15.0 mph - N/A   Clear
10:15 AM 46.4 °F 40.7 °F 26.6 °F 46% 29.98 in 10.0 mi North 12.7 mph - N/A   Clear
10:35 AM 48.2 °F - 26.6 °F 43% 29.99 in 10.0 mi North 11.5 mph - N/A   Clear
10:55 AM 50.0 °F - 24.8 °F 37% 29.98 in 10.0 mi North 11.5 mph - N/A   Clear
11:15 AM 51.8 °F - 24.8 °F 35% 29.98 in 10.0 mi North 11.5 mph - N/A   Clear
11:35 AM 53.6 °F - 24.8 °F 33% 29.98 in 10.0 mi North 10.4 mph - N/A   Clear
11:55 AM 53.6 °F - 24.8 °F 33% 29.98 in 10.0 mi NNE 12.7 mph 18.4 mph N/A   Clear
12:15 PM 55.4 °F - 23.0 °F 29% 29.98 in 10.0 mi North 9.2 mph - N/A   Clear
12:35 PM 55.4 °F - 23.0 °F 29% 29.97 in 10.0 mi North 9.2 mph - N/A   Clear
12:55 PM 57.2 °F - 23.0 °F 27% 29.97 in 10.0 mi North 10.4 mph - N/A   Clear
1:15 PM 59.0 °F - 23.0 °F 25% 29.96 in 10.0 mi North 6.9 mph - N/A   Clear
1:35 PM 59.0 °F - 23.0 °F 25% 29.95 in 10.0 mi NNE 8.1 mph - N/A   Clear
1:55 PM 59.0 °F - 23.0 °F 25% 29.94 in 10.0 mi North 11.5 mph - N/A   Clear
2:15 PM 59.0 °F - 23.0 °F 25% 29.94 in 10.0 mi NNW 5.8 mph - N/A   Clear
2:35 PM 60.8 °F - 23.0 °F 23% 29.93 in 10.0 mi North 8.1 mph - N/A   Clear
2:55 PM 60.8 °F - 23.0 °F 23% 29.93 in 10.0 mi North 9.2 mph - N/A   Clear
3:15 PM 60.8 °F - 23.0 °F 23% 29.93 in 10.0 mi North 9.2 mph - N/A   Clear
3:55 PM 60.8 °F - 21.2 °F 22% 29.93 in 10.0 mi North 5.8 mph - N/A   Clear
4:15 PM 60.8 °F - 21.2 °F 22% 29.93 in 10.0 mi NNE 3.5 mph - N/A   Clear
4:35 PM 59.0 °F - 21.2 °F 23% 29.93 in 10.0 mi North 5.8 mph - N/A   Clear
4:55 PM 59.0 °F - 21.2 °F 23% 29.93 in 10.0 mi North 5.8 mph - N/A   Clear
5:15 PM 59.0 °F - 23.0 °F 25% 29.93 in 10.0 mi NNE 3.5 mph - N/A   Clear
5:35 PM 55.4 °F - 23.0 °F 29% 29.93 in 10.0 mi NNE 4.6 mph - N/A   Clear
5:55 PM 53.6 °F - 23.0 °F 30% 29.93 in 10.0 mi Calm Calm - N/A   Clear
6:15 PM 51.8 °F - 23.0 °F 33% 29.94 in 10.0 mi NW 3.5 mph - N/A   Clear
6:35 PM 51.8 °F - 23.0 °F 33% 29.94 in 10.0 mi Calm Calm - N/A   Clear
6:55 PM 50.0 °F - 23.0 °F 35% 29.95 in 10.0 mi Calm Calm - N/A   Clear
7:15 PM 44.6 °F - 23.0 °F 43% 29.95 in 10.0 mi Calm Calm - N/A   Clear
7:35 PM 50.0 °F - 23.0 °F 35% 29.95 in 10.0 mi Calm Calm - N/A   Clear
7:55 PM 50.0 °F - 23.0 °F 35% 29.96 in 10.0 mi Calm Calm - N/A   Clear
8:15 PM 41.0 °F 37.1 °F 23.0 °F 49% 29.96 in 10.0 mi SE 5.8 mph - N/A   Clear
8:35 PM 41.0 °F 35.8 °F 23.0 °F 49% 29.97 in 10.0 mi SSE 8.1 mph - N/A   Clear
8:55 PM 41.0 °F 35.2 °F 23.0 °F 49% 29.96 in 10.0 mi SSE 9.2 mph - N/A   Clear
9:15 PM 41.0 °F 35.2 °F 24.8 °F 53% 29.97 in 10.0 mi SSE 9.2 mph - N/A   Clear
9:35 PM 39.2 °F 34.2 °F 24.8 °F 56% 29.98 in 10.0 mi SSE 6.9 mph - N/A   Clear
9:55 PM 37.4 °F 32.1 °F 23.0 °F 56% 29.98 in 10.0 mi SSE 6.9 mph - N/A   Clear
10:15 PM 35.6 °F 32.8 °F 24.8 °F 65% 29.98 in 10.0 mi SE 3.5 mph - N/A   Clear
10:35 PM 37.4 °F 34.9 °F 23.0 °F 56% 29.99 in 10.0 mi ESE 3.5 mph - N/A   Clear
10:55 PM 37.4 °F - 23.0 °F 56% 29.98 in 10.0 mi Calm Calm - N/A   Clear
11:15 PM 39.2 °F - 24.8 °F 56% 29.98 in 10.0 mi Calm Calm - N/A   Clear
11:35 PM 35.6 °F 29.9 °F 24.8 °F 65% 29.97 in 10.0 mi SSE 6.9 mph - N/A   Clear
11:55 PM 37.4 °F 31.4 °F 26.6 °F 65% 29.97 in 10.0 mi SSE 8.1 mph - N/A   Clear